sensor_id;sensor_type;location;lat;lon;timestamp;pressure;altitude;pressure_sealevel;temperature;humidity
33414;BME280;60055;41.884;12.534;2023-03-18T00:01:01;101399.88;;;10.84;62.83
33414;BME280;60055;41.884;12.534;2023-03-18T00:03:31;101398.81;;;10.91;62.82
33414;BME280;60055;41.884;12.534;2023-03-18T00:06:22;101395.84;;;10.69;63.51
33414;BME280;60055;41.884;12.534;2023-03-18T00:08:54;101395.28;;;10.90;62.43
33414;BME280;60055;41.884;12.534;2023-03-18T00:11:27;101408.94;;;10.73;63.32
33414;BME280;60055;41.884;12.534;2023-03-18T00:13:52;101401.63;;;10.85;62.88
33414;BME280;60055;41.884;12.534;2023-03-18T00:16:18;101402.63;;;10.79;63.15
33414;BME280;60055;41.884;12.534;2023-03-18T00:18:45;101400.31;;;10.67;63.47
33414;BME280;60055;41.884;12.534;2023-03-18T00:21:14;101400.97;;;10.75;63.53
33414;BME280;60055;41.884;12.534;2023-03-18T00:23:42;101398.31;;;10.75;63.40
33414;BME280;60055;41.884;12.534;2023-03-18T00:26:26;101401.47;;;10.89;62.69
33414;BME280;60055;41.884;12.534;2023-03-18T00:28:57;101396.38;;;10.82;63.27
33414;BME280;60055;41.884;12.534;2023-03-18T00:31:52;101401.38;;;10.92;62.86
33414;BME280;60055;41.884;12.534;2023-03-18T00:34:18;101403.38;;;10.84;63.06
33414;BME280;60055;41.884;12.534;2023-03-18T00:37:05;101405.69;;;10.96;62.60
33414;BME280;60055;41.884;12.534;2023-03-18T00:39:36;101397.16;;;10.87;63.08
33414;BME280;60055;41.884;12.534;2023-03-18T00:42:02;101408.31;;;10.96;62.81
33414;BME280;60055;41.884;12.534;2023-03-18T00:44:34;101404.72;;;10.99;62.94
33414;BME280;60055;41.884;12.534;2023-03-18T00:47:00;101399.31;;;11.05;62.53
33414;BME280;60055;41.884;12.534;2023-03-18T00:49:25;101399.75;;;10.88;63.12
33414;BME280;60055;41.884;12.534;2023-03-18T00:51:58;101389.25;;;10.85;62.73
33414;BME280;60055;41.884;12.534;2023-03-18T00:54:27;101390.09;;;10.87;62.71
33414;BME280;60055;41.884;12.534;2023-03-18T00:56:53;101380.69;;;10.77;62.95
33414;BME280;60055;41.884;12.534;2023-03-18T00:59:19;101380.75;;;10.74;63.23
33414;BME280;60055;41.884;12.534;2023-03-18T01:01:45;101377.94;;;10.80;63.08
33414;BME280;60055;41.884;12.534;2023-03-18T01:07:03;101381.66;;;10.38;64.25
33414;BME280;60055;41.884;12.534;2023-03-18T01:09:53;101375.63;;;10.34;64.54
33414;BME280;60055;41.884;12.534;2023-03-18T01:19:30;101376.03;;;10.51;64.04
33414;BME280;60055;41.884;12.534;2023-03-18T01:25:51;101359.28;;;10.54;64.01
33414;BME280;60055;41.884;12.534;2023-03-18T01:32:34;101351.47;;;10.49;64.09
33414;BME280;60055;41.884;12.534;2023-03-18T01:35:58;101350.16;;;10.65;63.24
33414;BME280;60055;41.884;12.534;2023-03-18T01:42:03;101346.00;;;10.57;63.49
33414;BME280;60055;41.884;12.534;2023-03-18T01:44:37;101353.22;;;10.50;63.80
33414;BME280;60055;41.884;12.534;2023-03-18T01:47:30;101353.16;;;10.52;63.94
33414;BME280;60055;41.884;12.534;2023-03-18T01:50:29;101352.34;;;10.50;63.74
33414;BME280;60055;41.884;12.534;2023-03-18T01:53:22;101355.09;;;10.45;64.04
33414;BME280;60055;41.884;12.534;2023-03-18T01:59:19;101347.13;;;10.47;63.86
33414;BME280;60055;41.884;12.534;2023-03-18T02:05:19;101342.84;;;10.43;63.75
33414;BME280;60055;41.884;12.534;2023-03-18T02:07:48;101343.06;;;10.34;64.28
33414;BME280;60055;41.884;12.534;2023-03-18T02:10:31;101340.22;;;10.41;63.94
33414;BME280;60055;41.884;12.534;2023-03-18T02:17:02;101334.84;;;10.46;63.47
33414;BME280;60055;41.884;12.534;2023-03-18T02:31:59;101322.16;;;10.24;64.30
33414;BME280;60055;41.884;12.534;2023-03-18T02:34:54;101314.25;;;10.24;63.97
33414;BME280;60055;41.884;12.534;2023-03-18T02:40:19;101316.97;;;10.21;64.06
33414;BME280;60055;41.884;12.534;2023-03-18T02:43:21;101320.66;;;10.14;64.37
33414;BME280;60055;41.884;12.534;2023-03-18T02:49:32;101312.72;;;10.16;64.27
33414;BME280;60055;41.884;12.534;2023-03-18T02:52:04;101318.09;;;9.74;66.18
33414;BME280;60055;41.884;12.534;2023-03-18T02:54:30;101318.00;;;9.79;65.99
33414;BME280;60055;41.884;12.534;2023-03-18T02:57:05;101325.81;;;9.82;66.16
33414;BME280;60055;41.884;12.534;2023-03-18T03:00:00;101319.38;;;9.94;65.66
33414;BME280;60055;41.884;12.534;2023-03-18T03:02:56;101318.53;;;9.93;65.84
33414;BME280;60055;41.884;12.534;2023-03-18T03:05:35;101320.72;;;10.11;64.91
33414;BME280;60055;41.884;12.534;2023-03-18T03:08:20;101319.13;;;10.04;64.87
33414;BME280;60055;41.884;12.534;2023-03-18T03:10:51;101323.03;;;9.88;65.29
33414;BME280;60055;41.884;12.534;2023-03-18T03:13:49;101322.41;;;9.77;65.59
33414;BME280;60055;41.884;12.534;2023-03-18T03:22:23;101329.00;;;9.96;64.65
33414;BME280;60055;41.884;12.534;2023-03-18T03:24:54;101339.56;;;9.96;64.35
33414;BME280;60055;41.884;12.534;2023-03-18T03:27:29;101325.31;;;9.66;64.80
33414;BME280;60055;41.884;12.534;2023-03-18T03:29:58;101328.00;;;9.63;64.88
33414;BME280;60055;41.884;12.534;2023-03-18T03:32:53;101329.03;;;9.58;65.24
33414;BME280;60055;41.884;12.534;2023-03-18T03:35:53;101325.94;;;9.39;65.74
33414;BME280;60055;41.884;12.534;2023-03-18T03:38:37;101327.47;;;9.48;65.22
33414;BME280;60055;41.884;12.534;2023-03-18T03:41:05;101326.97;;;9.32;66.06
33414;BME280;60055;41.884;12.534;2023-03-18T03:43:31;101328.66;;;9.35;66.27
33414;BME280;60055;41.884;12.534;2023-03-18T03:52:27;101329.69;;;9.26;66.23
33414;BME280;60055;41.884;12.534;2023-03-18T03:55:42;101333.13;;;9.31;65.91
33414;BME280;60055;41.884;12.534;2023-03-18T03:59:14;101329.84;;;9.20;66.27
33414;BME280;60055;41.884;12.534;2023-03-18T04:02:05;101326.84;;;9.37;65.64
33414;BME280;60055;41.884;12.534;2023-03-18T04:04:51;101324.47;;;9.24;65.92
33414;BME280;60055;41.884;12.534;2023-03-18T04:07:44;101326.31;;;9.19;66.29
33414;BME280;60055;41.884;12.534;2023-03-18T04:10:34;101324.19;;;9.37;65.50
33414;BME280;60055;41.884;12.534;2023-03-18T04:13:34;101325.94;;;9.39;65.48
33414;BME280;60055;41.884;12.534;2023-03-18T04:16:22;101324.56;;;9.20;66.29
33414;BME280;60055;41.884;12.534;2023-03-18T04:18:56;101317.50;;;9.22;66.04
33414;BME280;60055;41.884;12.534;2023-03-18T04:21:43;101320.00;;;9.28;65.79
33414;BME280;60055;41.884;12.534;2023-03-18T04:24:32;101317.97;;;9.41;65.53
33414;BME280;60055;41.884;12.534;2023-03-18T04:27:15;101324.13;;;9.40;65.38
33414;BME280;60055;41.884;12.534;2023-03-18T04:30:49;101334.56;;;9.46;65.24
33414;BME280;60055;41.884;12.534;2023-03-18T04:34:07;101329.38;;;9.41;64.79
33414;BME280;60055;41.884;12.534;2023-03-18T04:37:04;101326.91;;;9.35;64.63
33414;BME280;60055;41.884;12.534;2023-03-18T04:40:01;101319.84;;;9.36;64.63
33414;BME280;60055;41.884;12.534;2023-03-18T04:42:53;101327.03;;;9.28;64.82
33414;BME280;60055;41.884;12.534;2023-03-18T04:45:45;101323.69;;;9.19;64.74
33414;BME280;60055;41.884;12.534;2023-03-18T04:48:11;101321.84;;;9.24;64.80
33414;BME280;60055;41.884;12.534;2023-03-18T04:50:41;101324.41;;;9.29;64.82
33414;BME280;60055;41.884;12.534;2023-03-18T04:53:47;101316.72;;;9.17;64.92
33414;BME280;60055;41.884;12.534;2023-03-18T04:56:22;101323.75;;;9.18;65.21
33414;BME280;60055;41.884;12.534;2023-03-18T04:58:51;101316.72;;;9.18;65.25
33414;BME280;60055;41.884;12.534;2023-03-18T05:01:25;101320.25;;;9.16;65.49
33414;BME280;60055;41.884;12.534;2023-03-18T05:04:06;101327.41;;;9.09;65.74
33414;BME280;60055;41.884;12.534;2023-03-18T05:07:04;101331.13;;;8.99;66.35
33414;BME280;60055;41.884;12.534;2023-03-18T05:10:03;101325.44;;;9.20;65.23
33414;BME280;60055;41.884;12.534;2023-03-18T05:12:52;101323.44;;;9.32;64.83
33414;BME280;60055;41.884;12.534;2023-03-18T05:15:41;101330.56;;;9.27;64.64
33414;BME280;60055;41.884;12.534;2023-03-18T05:18:17;101318.25;;;9.29;64.43
33414;BME280;60055;41.884;12.534;2023-03-18T05:20:52;101325.41;;;9.22;64.67
33414;BME280;60055;41.884;12.534;2023-03-18T05:24:43;101326.31;;;9.19;64.81
33414;BME280;60055;41.884;12.534;2023-03-18T05:27:15;101325.13;;;9.36;64.64
33414;BME280;60055;41.884;12.534;2023-03-18T05:30:32;101320.53;;;9.44;64.29
33414;BME280;60055;41.884;12.534;2023-03-18T05:33:24;101332.25;;;9.31;64.77
33414;BME280;60055;41.884;12.534;2023-03-18T05:36:13;101332.59;;;9.15;65.25
33414;BME280;60055;41.884;12.534;2023-03-18T05:38:39;101337.81;;;9.17;65.79
33414;BME280;60055;41.884;12.534;2023-03-18T05:41:47;101338.31;;;9.34;64.93
33414;BME280;60055;41.884;12.534;2023-03-18T05:47:32;101344.41;;;9.38;64.66
33414;BME280;60055;41.884;12.534;2023-03-18T05:50:30;101335.16;;;9.18;65.53
33414;BME280;60055;41.884;12.534;2023-03-18T05:52:59;101345.88;;;9.51;65.01
33414;BME280;60055;41.884;12.534;2023-03-18T05:55:25;101340.13;;;9.72;63.91
33414;BME280;60055;41.884;12.534;2023-03-18T05:58:15;101337.78;;;9.58;64.25
33414;BME280;60055;41.884;12.534;2023-03-18T06:03:44;101347.91;;;10.16;62.71
33414;BME280;60055;41.884;12.534;2023-03-18T06:06:18;101348.56;;;10.24;62.02
33414;BME280;60055;41.884;12.534;2023-03-18T06:08:55;101345.84;;;9.52;64.32
33414;BME280;60055;41.884;12.534;2023-03-18T06:11:23;101344.63;;;10.05;62.25
33414;BME280;60055;41.884;12.534;2023-03-18T06:13:51;101354.13;;;10.11;62.38
33414;BME280;60055;41.884;12.534;2023-03-18T06:16:25;101352.06;;;10.27;62.46
33414;BME280;60055;41.884;12.534;2023-03-18T06:19:15;101355.16;;;10.76;60.43
33414;BME280;60055;41.884;12.534;2023-03-18T06:25:25;101359.69;;;11.63;57.26
33414;BME280;60055;41.884;12.534;2023-03-18T06:28:02;101354.97;;;11.74;56.95
33414;BME280;60055;41.884;12.534;2023-03-18T06:30:33;101347.00;;;11.76;56.70
33414;BME280;60055;41.884;12.534;2023-03-18T06:33:07;101356.25;;;11.60;56.98
33414;BME280;60055;41.884;12.534;2023-03-18T06:35:36;101352.56;;;11.95;55.67
33414;BME280;60055;41.884;12.534;2023-03-18T06:38:26;101352.84;;;12.13;55.97
33414;BME280;60055;41.884;12.534;2023-03-18T06:44:08;101345.16;;;12.06;55.27
33414;BME280;60055;41.884;12.534;2023-03-18T06:46:39;101346.03;;;12.33;54.63
33414;BME280;60055;41.884;12.534;2023-03-18T06:49:37;101350.97;;;12.17;54.20
33414;BME280;60055;41.884;12.534;2023-03-18T06:52:17;101353.38;;;11.97;54.75
33414;BME280;60055;41.884;12.534;2023-03-18T06:54:45;101354.97;;;12.30;53.94
33414;BME280;60055;41.884;12.534;2023-03-18T06:57:31;101347.59;;;11.86;54.76
33414;BME280;60055;41.884;12.534;2023-03-18T07:00:00;101350.41;;;12.07;55.45
33414;BME280;60055;41.884;12.534;2023-03-18T07:02:38;101341.59;;;12.59;54.05
33414;BME280;60055;41.884;12.534;2023-03-18T07:05:06;101341.28;;;12.93;52.92
33414;BME280;60055;41.884;12.534;2023-03-18T07:07:42;101333.44;;;12.90;52.15
33414;BME280;60055;41.884;12.534;2023-03-18T07:10:34;101334.22;;;12.92;52.66
33414;BME280;60055;41.884;12.534;2023-03-18T07:13:20;101343.94;;;13.41;51.28
33414;BME280;60055;41.884;12.534;2023-03-18T07:15:48;101342.22;;;13.17;51.69
33414;BME280;60055;41.884;12.534;2023-03-18T07:21:29;101340.03;;;14.16;48.87
33414;BME280;60055;41.884;12.534;2023-03-18T07:23:54;101341.28;;;14.51;47.99
33414;BME280;60055;41.884;12.534;2023-03-18T07:26:20;101339.81;;;14.64;47.52
33414;BME280;60055;41.884;12.534;2023-03-18T07:28:55;101339.50;;;14.72;47.13
33414;BME280;60055;41.884;12.534;2023-03-18T07:31:23;101335.91;;;14.93;47.34
33414;BME280;60055;41.884;12.534;2023-03-18T07:34:30;101336.53;;;15.18;46.62
33414;BME280;60055;41.884;12.534;2023-03-18T07:37:28;101340.50;;;15.28;46.29
33414;BME280;60055;41.884;12.534;2023-03-18T07:40:20;101344.97;;;15.08;47.60
33414;BME280;60055;41.884;12.534;2023-03-18T07:42:55;101339.88;;;15.42;46.45
33414;BME280;60055;41.884;12.534;2023-03-18T07:49:10;101351.44;;;16.16;44.29
33414;BME280;60055;41.884;12.534;2023-03-18T07:52:10;101356.81;;;15.97;44.90
33414;BME280;60055;41.884;12.534;2023-03-18T07:55:04;101356.66;;;16.00;45.03
33414;BME280;60055;41.884;12.534;2023-03-18T07:58:02;101355.81;;;16.35;43.61
33414;BME280;60055;41.884;12.534;2023-03-18T08:01:17;101365.34;;;16.58;43.87
33414;BME280;60055;41.884;12.534;2023-03-18T08:03:46;101366.56;;;17.03;42.84
33414;BME280;60055;41.884;12.534;2023-03-18T08:06:39;101356.78;;;16.69;43.14
33414;BME280;60055;41.884;12.534;2023-03-18T08:09:22;101359.31;;;16.72;44.05
33414;BME280;60055;41.884;12.534;2023-03-18T08:12:11;101368.69;;;17.13;43.30
33414;BME280;60055;41.884;12.534;2023-03-18T08:21:41;101367.63;;;17.66;43.35
33414;BME280;60055;41.884;12.534;2023-03-18T08:24:17;101372.88;;;18.30;41.73
33414;BME280;60055;41.884;12.534;2023-03-18T08:26:54;101364.53;;;18.66;41.39
33414;BME280;60055;41.884;12.534;2023-03-18T08:29:22;101377.81;;;18.67;40.98
33414;BME280;60055;41.884;12.534;2023-03-18T08:31:59;101360.34;;;18.62;41.02
33414;BME280;60055;41.884;12.534;2023-03-18T08:37:54;101374.28;;;18.67;41.19
33414;BME280;60055;41.884;12.534;2023-03-18T08:40:47;101377.13;;;18.94;39.93
33414;BME280;60055;41.884;12.534;2023-03-18T08:43:44;101363.97;;;19.05;39.58
33414;BME280;60055;41.884;12.534;2023-03-18T08:46:29;101365.69;;;19.06;39.07
33414;BME280;60055;41.884;12.534;2023-03-18T08:48:58;101366.47;;;19.22;38.91
33414;BME280;60055;41.884;12.534;2023-03-18T08:52:03;101371.00;;;19.50;38.84
33414;BME280;60055;41.884;12.534;2023-03-18T08:54:34;101388.84;;;18.77;39.99
33414;BME280;60055;41.884;12.534;2023-03-18T08:57:04;101380.94;;;18.89;39.95
33414;BME280;60055;41.884;12.534;2023-03-18T08:59:33;101383.66;;;19.18;39.69
33414;BME280;60055;41.884;12.534;2023-03-18T09:02:16;101378.91;;;19.23;40.04
33414;BME280;60055;41.884;12.534;2023-03-18T09:04:49;101378.47;;;19.45;38.95
33414;BME280;60055;41.884;12.534;2023-03-18T09:07:15;101373.91;;;19.31;39.28
33414;BME280;60055;41.884;12.534;2023-03-18T09:12:56;101386.63;;;18.99;39.17
33414;BME280;60055;41.884;12.534;2023-03-18T09:18:59;101392.56;;;18.74;40.92
33414;BME280;60055;41.884;12.534;2023-03-18T09:22:33;101384.91;;;18.82;40.20
33414;BME280;60055;41.884;12.534;2023-03-18T09:31:53;101393.44;;;18.59;41.15
33414;BME280;60055;41.884;12.534;2023-03-18T09:35:04;101382.41;;;18.65;40.92
33414;BME280;60055;41.884;12.534;2023-03-18T09:37:51;101398.81;;;18.59;40.66
33414;BME280;60055;41.884;12.534;2023-03-18T09:44:04;101405.03;;;18.28;40.51
33414;BME280;60055;41.884;12.534;2023-03-18T09:55:23;101392.19;;;18.35;41.02
33414;BME280;60055;41.884;12.534;2023-03-18T09:57:54;101405.56;;;18.51;40.79
33414;BME280;60055;41.884;12.534;2023-03-18T10:02:57;101388.56;;;18.05;40.21
33414;BME280;60055;41.884;12.534;2023-03-18T10:05:33;101386.69;;;18.07;39.53
33414;BME280;60055;41.884;12.534;2023-03-18T10:08:08;101384.19;;;18.04;39.89
33414;BME280;60055;41.884;12.534;2023-03-18T10:11:02;101379.88;;;17.70;40.72
33414;BME280;60055;41.884;12.534;2023-03-18T10:13:34;101381.47;;;17.57;41.80
33414;BME280;60055;41.884;12.534;2023-03-18T10:16:03;101372.34;;;17.61;42.60
33414;BME280;60055;41.884;12.534;2023-03-18T10:18:33;101370.22;;;17.67;42.36
33414;BME280;60055;41.884;12.534;2023-03-18T10:23:42;101369.00;;;17.88;41.64
33414;BME280;60055;41.884;12.534;2023-03-18T10:26:26;101361.31;;;17.98;42.31
33414;BME280;60055;41.884;12.534;2023-03-18T10:29:02;101370.50;;;17.94;42.37
33414;BME280;60055;41.884;12.534;2023-03-18T10:34:22;101373.31;;;17.75;42.58
33414;BME280;60055;41.884;12.534;2023-03-18T10:39:26;101363.84;;;17.85;42.21
33414;BME280;60055;41.884;12.534;2023-03-18T10:41:54;101366.59;;;18.00;43.10
33414;BME280;60055;41.884;12.534;2023-03-18T10:44:28;101363.31;;;17.95;42.50
33414;BME280;60055;41.884;12.534;2023-03-18T10:47:04;101363.59;;;17.90;42.93
33414;BME280;60055;41.884;12.534;2023-03-18T10:49:41;101370.47;;;17.63;42.93
33414;BME280;60055;41.884;12.534;2023-03-18T10:52:18;101362.97;;;17.85;40.86
33414;BME280;60055;41.884;12.534;2023-03-18T10:54:45;101370.28;;;17.81;40.77
33414;BME280;60055;41.884;12.534;2023-03-18T10:57:16;101374.06;;;17.62;41.28
33414;BME280;60055;41.884;12.534;2023-03-18T10:59:44;101366.91;;;17.62;42.44
33414;BME280;60055;41.884;12.534;2023-03-18T11:02:20;101360.81;;;17.76;42.49
33414;BME280;60055;41.884;12.534;2023-03-18T11:07:59;101370.28;;;17.66;41.40
33414;BME280;60055;41.884;12.534;2023-03-18T11:10:32;101364.09;;;17.65;41.46
33414;BME280;60055;41.884;12.534;2023-03-18T11:12:59;101372.88;;;17.67;41.56
33414;BME280;60055;41.884;12.534;2023-03-18T11:15:37;101371.56;;;17.74;40.99
33414;BME280;60055;41.884;12.534;2023-03-18T11:18:13;101362.53;;;17.44;41.47
33414;BME280;60055;41.884;12.534;2023-03-18T11:20:44;101370.69;;;17.58;42.04
33414;BME280;60055;41.884;12.534;2023-03-18T11:23:29;101360.06;;;17.74;41.17
33414;BME280;60055;41.884;12.534;2023-03-18T11:26:27;101352.81;;;17.76;42.14
33414;BME280;60055;41.884;12.534;2023-03-18T11:28:59;101355.19;;;17.65;42.03
33414;BME280;60055;41.884;12.534;2023-03-18T11:31:30;101355.19;;;17.65;43.06
33414;BME280;60055;41.884;12.534;2023-03-18T11:33:57;101344.28;;;17.69;42.56
33414;BME280;60055;41.884;12.534;2023-03-18T11:36:26;101350.56;;;17.84;41.95
33414;BME280;60055;41.884;12.534;2023-03-18T11:38:57;101353.84;;;17.89;42.18
33414;BME280;60055;41.884;12.534;2023-03-18T11:41:25;101349.78;;;17.82;41.76
33414;BME280;60055;41.884;12.534;2023-03-18T11:44:00;101359.78;;;17.78;41.36
33414;BME280;60055;41.884;12.534;2023-03-18T11:46:34;101348.84;;;17.83;41.39
33414;BME280;60055;41.884;12.534;2023-03-18T11:49:03;101350.75;;;17.81;42.10
33414;BME280;60055;41.884;12.534;2023-03-18T11:51:37;101356.63;;;17.88;41.91
33414;BME280;60055;41.884;12.534;2023-03-18T11:54:25;101348.56;;;17.72;42.68
33414;BME280;60055;41.884;12.534;2023-03-18T11:57:15;101344.34;;;17.68;43.15
33414;BME280;60055;41.884;12.534;2023-03-18T12:05:59;101325.66;;;17.99;41.72
33414;BME280;60055;41.884;12.534;2023-03-18T12:14:53;101317.97;;;18.09;41.27
33414;BME280;60055;41.884;12.534;2023-03-18T12:20:47;101317.63;;;18.15;40.22
33414;BME280;60055;41.884;12.534;2023-03-18T12:23:31;101306.75;;;18.18;39.96
33414;BME280;60055;41.884;12.534;2023-03-18T12:26:37;101312.38;;;17.98;40.83
33414;BME280;60055;41.884;12.534;2023-03-18T12:47:21;101286.69;;;17.95;44.13
33414;BME280;60055;41.884;12.534;2023-03-18T12:55:16;101281.06;;;18.45;42.83
33414;BME280;60055;41.884;12.534;2023-03-18T12:57:47;101287.03;;;18.50;43.18
33414;BME280;60055;41.884;12.534;2023-03-18T13:03:41;101286.78;;;18.69;41.88
33414;BME280;60055;41.884;12.534;2023-03-18T13:06:38;101286.88;;;18.67;41.67
33414;BME280;60055;41.884;12.534;2023-03-18T13:09:20;101281.88;;;18.31;43.27
33414;BME280;60055;41.884;12.534;2023-03-18T13:12:03;101269.50;;;18.74;42.70
33414;BME280;60055;41.884;12.534;2023-03-18T13:15:00;101274.25;;;18.69;42.50
33414;BME280;60055;41.884;12.534;2023-03-18T13:17:40;101280.44;;;18.56;42.68
33414;BME280;60055;41.884;12.534;2023-03-18T13:20:13;101265.00;;;18.75;41.99
33414;BME280;60055;41.884;12.534;2023-03-18T13:28:37;101260.69;;;18.72;42.21
33414;BME280;60055;41.884;12.534;2023-03-18T13:31:12;101258.00;;;18.58;42.19
33414;BME280;60055;41.884;12.534;2023-03-18T13:36:51;101263.66;;;18.68;42.85
33414;BME280;60055;41.884;12.534;2023-03-18T13:42:26;101255.16;;;19.04;42.08
33414;BME280;60055;41.884;12.534;2023-03-18T13:48:31;101258.78;;;18.74;41.95
33414;BME280;60055;41.884;12.534;2023-03-18T13:51:28;101251.31;;;18.51;41.87
33414;BME280;60055;41.884;12.534;2023-03-18T13:54:13;101260.94;;;18.54;41.96
33414;BME280;60055;41.884;12.534;2023-03-18T13:56:49;101246.94;;;18.49;41.75
33414;BME280;60055;41.884;12.534;2023-03-18T14:07:54;101254.97;;;18.34;41.22
33414;BME280;60055;41.884;12.534;2023-03-18T14:10:25;101242.56;;;18.48;41.16
33414;BME280;60055;41.884;12.534;2023-03-18T14:13:34;101240.13;;;18.29;41.84
33414;BME280;60055;41.884;12.534;2023-03-18T14:16:10;101236.38;;;18.17;42.54
33414;BME280;60055;41.884;12.534;2023-03-18T14:18:40;101227.75;;;18.12;42.15
33414;BME280;60055;41.884;12.534;2023-03-18T14:21:23;101225.03;;;17.98;43.13
33414;BME280;60055;41.884;12.534;2023-03-18T14:27:08;101226.63;;;18.16;43.16
33414;BME280;60055;41.884;12.534;2023-03-18T14:29:43;101231.91;;;18.18;43.10
33414;BME280;60055;41.884;12.534;2023-03-18T14:32:55;101233.72;;;18.17;43.60
33414;BME280;60055;41.884;12.534;2023-03-18T14:35:32;101236.56;;;18.14;44.01
33414;BME280;60055;41.884;12.534;2023-03-18T14:38:08;101238.00;;;17.90;43.30
33414;BME280;60055;41.884;12.534;2023-03-18T14:40:47;101237.13;;;17.90;42.77
33414;BME280;60055;41.884;12.534;2023-03-18T14:43:28;101241.97;;;17.83;43.40
33414;BME280;60055;41.884;12.534;2023-03-18T14:46:01;101238.00;;;17.74;43.64
33414;BME280;60055;41.884;12.534;2023-03-18T14:48:30;101242.84;;;17.83;43.11
33414;BME280;60055;41.884;12.534;2023-03-18T14:50:59;101237.41;;;17.54;44.64
33414;BME280;60055;41.884;12.534;2023-03-18T14:53:56;101233.34;;;17.78;43.79
33414;BME280;60055;41.884;12.534;2023-03-18T14:56:28;101238.88;;;17.75;44.26
33414;BME280;60055;41.884;12.534;2023-03-18T14:58:57;101235.47;;;17.57;44.82
33414;BME280;60055;41.884;12.534;2023-03-18T15:01:38;101230.22;;;17.56;44.23
33414;BME280;60055;41.884;12.534;2023-03-18T15:04:38;101226.06;;;17.50;44.16
33414;BME280;60055;41.884;12.534;2023-03-18T15:07:17;101226.31;;;17.46;45.79
33414;BME280;60055;41.884;12.534;2023-03-18T15:09:49;101230.25;;;17.38;45.86
33414;BME280;60055;41.884;12.534;2023-03-18T15:12:27;101221.13;;;17.43;45.98
33414;BME280;60055;41.884;12.534;2023-03-18T15:14:53;101219.06;;;17.32;46.03
33414;BME280;60055;41.884;12.534;2023-03-18T15:17:19;101217.09;;;17.35;46.50
33414;BME280;60055;41.884;12.534;2023-03-18T15:20:10;101214.50;;;17.18;46.91
33414;BME280;60055;41.884;12.534;2023-03-18T15:22:41;101211.88;;;16.85;48.31
33414;BME280;60055;41.884;12.534;2023-03-18T15:25:46;101209.78;;;16.75;48.47
33414;BME280;60055;41.884;12.534;2023-03-18T15:31:43;101207.31;;;16.88;48.62
33414;BME280;60055;41.884;12.534;2023-03-18T15:34:20;101206.28;;;16.90;48.54
33414;BME280;60055;41.884;12.534;2023-03-18T15:36:55;101210.06;;;16.86;49.31
33414;BME280;60055;41.884;12.534;2023-03-18T15:39:28;101205.69;;;16.85;49.36
33414;BME280;60055;41.884;12.534;2023-03-18T15:42:01;101201.56;;;16.79;49.60
33414;BME280;60055;41.884;12.534;2023-03-18T15:44:59;101206.78;;;16.81;49.20
33414;BME280;60055;41.884;12.534;2023-03-18T15:47:36;101208.69;;;16.79;49.51
33414;BME280;60055;41.884;12.534;2023-03-18T15:50:27;101204.28;;;16.78;50.05
33414;BME280;60055;41.884;12.534;2023-03-18T15:53:14;101212.78;;;16.69;51.04
33414;BME280;60055;41.884;12.534;2023-03-18T15:55:47;101211.75;;;16.71;51.12
33414;BME280;60055;41.884;12.534;2023-03-18T15:58:27;101214.50;;;16.70;50.90
33414;BME280;60055;41.884;12.534;2023-03-18T16:00:58;101218.75;;;16.57;52.01
33414;BME280;60055;41.884;12.534;2023-03-18T16:03:26;101222.22;;;16.59;51.68
33414;BME280;60055;41.884;12.534;2023-03-18T16:05:53;101230.13;;;16.60;51.69
33414;BME280;60055;41.884;12.534;2023-03-18T16:08:20;101232.88;;;16.59;51.69
33414;BME280;60055;41.884;12.534;2023-03-18T16:10:51;101225.59;;;16.62;52.06
33414;BME280;60055;41.884;12.534;2023-03-18T16:13:25;101231.75;;;16.63;51.99
33414;BME280;60055;41.884;12.534;2023-03-18T16:15:52;101232.72;;;16.62;52.23
33414;BME280;60055;41.884;12.534;2023-03-18T16:18:21;101233.06;;;16.56;52.25
33414;BME280;60055;41.884;12.534;2023-03-18T16:20:59;101235.72;;;16.56;52.73
33414;BME280;60055;41.884;12.534;2023-03-18T16:23:26;101231.34;;;16.53;52.79
33414;BME280;60055;41.884;12.534;2023-03-18T16:26:01;101245.66;;;16.52;52.55
33414;BME280;60055;41.884;12.534;2023-03-18T16:28:27;101248.22;;;16.54;52.70
33414;BME280;60055;41.884;12.534;2023-03-18T16:30:53;101248.47;;;16.49;52.58
33414;BME280;60055;41.884;12.534;2023-03-18T16:33:21;101246.81;;;16.47;52.02
33414;BME280;60055;41.884;12.534;2023-03-18T16:35:55;101247.44;;;16.34;51.64
33414;BME280;60055;41.884;12.534;2023-03-18T16:38:28;101250.28;;;16.31;52.16
33414;BME280;60055;41.884;12.534;2023-03-18T16:40:55;101248.72;;;16.27;52.50
33414;BME280;60055;41.884;12.534;2023-03-18T16:43:24;101254.03;;;16.27;52.38
33414;BME280;60055;41.884;12.534;2023-03-18T16:45:53;101261.16;;;16.27;52.49
33414;BME280;60055;41.884;12.534;2023-03-18T16:48:25;101256.88;;;16.24;52.32
33414;BME280;60055;41.884;12.534;2023-03-18T16:50:51;101266.59;;;16.25;52.57
33414;BME280;60055;41.884;12.534;2023-03-18T16:53:25;101272.03;;;16.22;52.79
33414;BME280;60055;41.884;12.534;2023-03-18T16:56:02;101272.53;;;16.13;53.14
33414;BME280;60055;41.884;12.534;2023-03-18T16:58:31;101274.16;;;16.16;52.94
33414;BME280;60055;41.884;12.534;2023-03-18T17:01:03;101276.97;;;16.13;53.13
33414;BME280;60055;41.884;12.534;2023-03-18T17:03:31;101286.72;;;16.14;53.33
33414;BME280;60055;41.884;12.534;2023-03-18T17:05:57;101279.75;;;16.11;53.30
33414;BME280;60055;41.884;12.534;2023-03-18T17:08:23;101282.78;;;16.04;53.86
33414;BME280;60055;41.884;12.534;2023-03-18T17:10:50;101290.97;;;15.99;53.96